Terminal Aerodrome Forecast
Issued by NWS Charleston, WV

Current Version | Previous Version | Graphics & Text | Print | Product List | Glossary On
Versions: 1 2 3 4 5 6 7 8 9 10 11 12 13 14 15 16 17 18 19 20 21
583
FTUS41 KRLX 230235 AAA
TAFHTS
TAF AMD
KHTS 230235Z 2303/2324 06006KT P6SM BKN200
     FM231200 10008G16KT P6SM BKN100
     FM231600 11008G15KT P6SM OVC050
     FM231800 10008G14KT P6SM -SHRA OVC050
     FM232100 10009G16KT P6SM OVC030=

USA.gov is the U.S. government's official web portal to all federal, state and local government web resources and services.